Time;durP1;ratioP1;P1;durP2;ratioP2;P2;SDS_P1;SDS_P2;PMS_P1;PMS_P2;Temp;Humidity;BMP_temperature;BMP_pressure;BME280_temperature;BME280_humidity;BME280_pressure;Samples;Min_cycle;Max_cycle;Signal;HPM_P1;HPM_P2
2021/10/18 00:01:53;;;;;;;12.32;4.65;;;29.00;88.70;;;;;;5083750;28;20024;-55
2021/10/18 00:04:20;;;;;;;10.30;5.30;;;29.00;88.90;;;;;;5077896;28;20301;-55
2021/10/18 00:06:46;;;;;;;10.88;5.55;;;28.90;88.80;;;;;;5072006;28;20049;-55
2021/10/18 00:09:13;;;;;;;13.20;5.88;;;28.80;89.70;;;;;;5073363;28;20017;-54
2021/10/18 00:11:40;;;;;;;21.50;10.20;;;28.60;90.00;;;;;;5074592;28;20076;-58
2021/10/18 00:14:07;;;;;;;13.05;10.18;;;28.60;90.10;;;;;;5073243;28;20213;-56
2021/10/18 00:16:36;;;;;;;13.05;7.80;;;28.50;90.00;;;;;;5072927;28;20036;-58
2021/10/18 00:19:04;;;;;;;12.45;6.30;;;28.50;90.00;;;;;;5074442;28;20025;-52
2021/10/18 00:21:32;;;;;;;16.10;4.60;;;28.50;90.10;;;;;;5073753;28;20181;-59
2021/10/18 00:23:58;;;;;;;9.38;5.32;;;28.50;90.10;;;;;;5069510;28;20024;-56
2021/10/18 00:26:25;;;;;;;8.10;3.97;;;28.50;90.00;;;;;;5073436;28;20194;-57
2021/10/18 00:28:51;;;;;;;5.05;3.05;;;28.50;90.20;;;;;;5071301;28;20277;-53
2021/10/18 00:31:19;;;;;;;7.57;2.67;;;28.40;90.10;;;;;;5070744;28;20039;-55
2021/10/18 00:33:45;;;;;;;4.90;2.38;;;28.40;90.10;;;;;;5073584;28;20021;-54
2021/10/18 00:36:12;;;;;;;6.20;2.70;;;28.40;90.00;;;;;;5074099;28;20083;-52
2021/10/18 00:38:39;;;;;;;12.68;6.07;;;28.50;90.00;;;;;;5068936;28;20029;-50
2021/10/18 00:41:06;;;;;;;11.38;6.40;;;28.50;90.00;;;;;;5065664;28;20029;-52
2021/10/18 00:43:32;;;;;;;10.95;6.10;;;28.60;89.80;;;;;;5063592;28;20025;-51
2021/10/18 00:46:03;;;;;;;11.50;5.25;;;28.60;89.80;;;;;;5071017;28;20013;-54
2021/10/18 00:48:30;;;;;;;9.40;5.10;;;28.60;89.70;;;;;;5072692;28;20096;-52
2021/10/18 00:50:57;;;;;;;9.93;5.95;;;28.60;89.60;;;;;;5071736;28;20012;-52
2021/10/18 00:53:26;;;;;;;10.80;5.57;;;28.60;89.40;;;;;;5073002;28;20025;-53
2021/10/18 00:55:54;;;;;;;9.20;5.00;;;28.60;89.60;;;;;;5066134;28;20079;-49
2021/10/18 00:58:22;;;;;;;10.02;4.18;;;28.60;89.60;;;;;;5067161;28;20035;-55
2021/10/18 01:00:50;;;;;;;8.20;3.50;;;28.60;89.50;;;;;;5067549;28;20362;-50
2021/10/18 01:03:17;;;;;;;7.05;3.33;;;28.60;89.30;;;;;;5067744;28;20032;-56
2021/10/18 01:05:44;;;;;;;6.63;3.15;;;28.60;89.50;;;;;;5067307;28;20080;-51
2021/10/18 01:08:12;;;;;;;9.50;3.00;;;28.60;89.50;;;;;;5067287;28;20108;-49
2021/10/18 01:10:39;;;;;;;4.53;3.35;;;28.60;89.50;;;;;;5067152;28;20233;-51
2021/10/18 01:13:06;;;;;;;6.05;3.58;;;28.60;89.50;;;;;;5067131;28;20017;-51
2021/10/18 01:15:35;;;;;;;12.02;5.13;;;28.60;89.40;;;;;;5049401;28;20028;-52
2021/10/18 01:18:02;;;;;;;8.45;5.65;;;28.60;89.60;;;;;;5065744;28;20027;-52
2021/10/18 01:20:42;;;;;;;8.35;4.82;;;28.60;89.50;;;;;;5066948;28;20013;-52
2021/10/18 01:23:11;;;;;;;9.77;4.55;;;28.60;89.40;;;;;;5067335;28;20056;-50
2021/10/18 01:25:39;;;;;;;7.95;3.83;;;28.60;89.30;;;;;;5066991;28;20080;-54
2021/10/18 01:28:07;;;;;;;7.22;3.10;;;28.60;89.30;;;;;;5066815;28;20037;-51
2021/10/18 01:30:34;;;;;;;8.00;3.08;;;28.60;89.20;;;;;;5065715;28;20111;-51
2021/10/18 01:33:01;;;;;;;4.53;2.40;;;28.60;89.40;;;;;;5066706;28;20017;-49
2021/10/18 01:35:27;;;;;;;7.38;3.13;;;28.60;89.40;;;;;;5066000;28;20348;-53
2021/10/18 01:37:57;;;;;;;8.65;2.95;;;28.60;89.60;;;;;;5065526;28;20059;-53
2021/10/18 01:40:25;;;;;;;6.43;2.88;;;28.60;89.70;;;;;;5065379;28;20100;-51
2021/10/18 01:42:52;;;;;;;5.75;2.35;;;28.60;89.80;;;;;;5066668;28;20017;-50
2021/10/18 01:45:20;;;;;;;4.93;2.60;;;28.60;89.90;;;;;;5066617;28;20021;-50
2021/10/18 01:47:48;;;;;;;6.30;2.45;;;28.50;89.90;;;;;;5066391;28;20025;-50
2021/10/18 01:50:20;;;;;;;6.10;2.30;;;28.50;90.00;;;;;;5065366;28;20024;-50
2021/10/18 01:52:48;;;;;;;8.20;2.00;;;28.50;90.10;;;;;;5066483;28;20029;-46
2021/10/18 01:55:17;;;;;;;4.22;2.28;;;28.50;90.10;;;;;;5066680;28;20027;-55
2021/10/18 01:57:45;;;;;;;8.10;2.60;;;28.50;90.10;;;;;;5066300;28;20221;-49
2021/10/18 02:00:12;;;;;;;6.93;2.83;;;28.50;90.30;;;;;;5066722;28;20351;-52
2021/10/18 02:02:39;;;;;;;7.35;2.50;;;28.50;90.30;;;;;;5066324;28;20094;-50
2021/10/18 02:05:06;;;;;;;11.35;2.65;;;28.50;90.40;;;;;;5066643;28;20020;-56
2021/10/18 02:07:33;;;;;;;4.65;2.55;;;28.50;90.40;;;;;;5064445;28;20029;-53
2021/10/18 02:10:00;;;;;;;10.85;1.98;;;28.50;90.50;;;;;;5066017;28;20220;-49
2021/10/18 02:12:27;;;;;;;6.93;2.05;;;28.40;90.50;;;;;;5066110;28;20025;-50
2021/10/18 02:14:54;;;;;;;5.07;1.98;;;28.40;90.50;;;;;;5066445;28;20182;-53
2021/10/18 02:17:20;;;;;;;3.72;2.08;;;28.40;90.50;;;;;;5065705;28;20020;-54
2021/10/18 02:19:47;;;;;;;6.75;2.00;;;28.40;90.60;;;;;;5066309;28;20244;-51
2021/10/18 02:22:14;;;;;;;6.32;1.67;;;28.40;90.60;;;;;;5065754;28;20052;-51
2021/10/18 02:24:41;;;;;;;3.55;1.67;;;28.40;90.60;;;;;;5065974;28;20021;-52
2021/10/18 02:27:08;;;;;;;3.17;1.40;;;28.40;90.70;;;;;;5065952;28;20025;-49
2021/10/18 02:29:34;;;;;;;5.35;1.70;;;28.40;90.70;;;;;;5064482;28;20044;-52
2021/10/18 02:32:01;;;;;;;3.92;1.60;;;28.40;90.70;;;;;;5065592;28;20359;-50
2021/10/18 02:34:28;;;;;;;2.75;1.20;;;28.40;90.70;;;;;;5065720;28;20221;-51
2021/10/18 02:36:54;;;;;;;7.68;1.60;;;28.40;90.80;;;;;;5065837;28;20067;-52
2021/10/18 02:39:21;;;;;;;6.15;1.60;;;28.40;90.80;;;;;;5065837;28;20027;-51
2021/10/18 02:41:47;;;;;;;4.03;1.60;;;28.40;90.90;;;;;;5065673;28;20013;-51
2021/10/18 02:44:14;;;;;;;6.60;1.90;;;28.30;90.80;;;;;;5065620;28;20186;-50
2021/10/18 02:46:40;;;;;;;3.50;1.20;;;28.30;90.80;;;;;;5065246;28;20072;-53
2021/10/18 02:49:07;;;;;;;2.95;1.38;;;28.30;90.80;;;;;;5064182;28;20083;-54
2021/10/18 02:51:34;;;;;;;5.82;1.48;;;28.30;90.80;;;;;;5065155;28;20244;-51
2021/10/18 02:54:04;;;;;;;7.20;1.65;;;28.30;90.90;;;;;;5067988;28;20316;-54
2021/10/18 02:56:32;;;;;;;5.25;1.58;;;28.30;91.00;;;;;;5065403;28;20020;-51
2021/10/18 02:58:58;;;;;;;4.47;1.52;;;28.30;91.00;;;;;;5065301;28;20255;-49
2021/10/18 03:01:25;;;;;;;5.03;1.73;;;28.20;91.00;;;;;;5063791;28;20024;-54
2021/10/18 03:03:52;;;;;;;6.78;1.50;;;28.20;91.10;;;;;;5064000;28;20025;-51
2021/10/18 03:06:18;;;;;;;7.93;1.70;;;28.10;91.10;;;;;;5070443;28;20028;-48
2021/10/18 03:08:45;;;;;;;5.25;1.45;;;28.10;91.20;;;;;;5085098;28;20196;-53
2021/10/18 03:11:13;;;;;;;3.53;1.63;;;28.10;91.20;;;;;;5085102;28;20019;-48
2021/10/18 03:13:39;;;;;;;6.25;1.30;;;28.10;91.20;;;;;;5085148;28;20028;-51
2021/10/18 03:16:06;;;;;;;4.53;1.38;;;28.10;91.20;;;;;;5084812;28;20075;-50
2021/10/18 03:18:33;;;;;;;2.65;1.17;;;28.10;91.20;;;;;;5083973;28;20233;-50
2021/10/18 03:20:59;;;;;;;4.00;1.40;;;28.10;91.20;;;;;;5084979;28;20009;-50
2021/10/18 03:23:26;;;;;;;6.30;1.52;;;28.10;91.30;;;;;;5084551;28;20024;-49
2021/10/18 03:25:53;;;;;;;5.88;1.63;;;28.10;91.20;;;;;;5084766;28;20009;-51
2021/10/18 03:28:19;;;;;;;2.58;1.02;;;28.10;91.20;;;;;;5084551;28;20052;-58
2021/10/18 03:30:46;;;;;;;7.47;1.60;;;28.10;91.20;;;;;;5084439;28;20024;-54
2021/10/18 03:33:13;;;;;;;5.05;1.40;;;28.00;91.20;;;;;;5084586;28;20058;-50
2021/10/18 03:35:40;;;;;;;3.92;1.30;;;28.00;91.10;;;;;;5084551;28;20028;-53
2021/10/18 03:38:06;;;;;;;3.35;1.40;;;28.00;91.10;;;;;;5084162;28;20088;-51
2021/10/18 03:40:33;;;;;;;4.90;1.45;;;28.00;91.10;;;;;;5084456;28;20020;-50
2021/10/18 03:43:00;;;;;;;3.80;1.30;;;28.00;91.10;;;;;;5084652;28;20012;-52
2021/10/18 03:45:26;;;;;;;5.45;1.30;;;28.00;91.00;;;;;;5084355;28;20020;-53
2021/10/18 03:47:53;;;;;;;4.30;1.20;;;28.00;91.00;;;;;;5083150;28;20036;-55
2021/10/18 03:50:20;;;;;;;3.08;1.35;;;28.00;91.00;;;;;;5083088;28;20027;-52
2021/10/18 03:52:46;;;;;;;4.80;1.42;;;28.00;90.90;;;;;;5084327;28;20247;-50
2021/10/18 03:55:13;;;;;;;3.30;1.70;;;28.00;90.90;;;;;;5084700;28;20059;-49
2021/10/18 03:57:40;;;;;;;7.25;1.27;;;28.00;91.10;;;;;;5084187;28;20020;-58
2021/10/18 04:00:08;;;;;;;3.13;1.30;;;28.00;90.90;;;;;;5084672;28;20025;-49
2021/10/18 04:02:36;;;;;;;5.38;1.50;;;27.90;90.80;;;;;;5084117;28;20023;-53
2021/10/18 04:05:03;;;;;;;4.72;1.40;;;28.00;90.80;;;;;;5083155;28;20050;-55
2021/10/18 04:07:29;;;;;;;4.68;1.42;;;27.90;90.80;;;;;;5084136;28;20024;-47
2021/10/18 04:09:57;;;;;;;4.40;1.50;;;27.90;90.80;;;;;;5082820;28;20028;-53
2021/10/18 04:12:23;;;;;;;6.78;1.50;;;27.90;90.80;;;;;;5084019;28;20036;-51
2021/10/18 04:14:50;;;;;;;5.20;1.70;;;27.90;90.80;;;;;;5084535;28;20035;-51
2021/10/18 04:17:17;;;;;;;5.93;1.60;;;27.90;90.80;;;;;;5083880;28;20317;-52
2021/10/18 04:19:46;;;;;;;3.25;1.65;;;27.90;90.80;;;;;;5084396;28;20032;-53
2021/10/18 04:22:12;;;;;;;3.15;1.38;;;27.90;90.80;;;;;;5083941;28;20027;-49
2021/10/18 04:24:39;;;;;;;5.53;1.33;;;27.90;90.80;;;;;;5084140;28;20047;-55
2021/10/18 04:27:06;;;;;;;8.15;1.52;;;27.80;90.80;;;;;;5083907;28;20209;-52
2021/10/18 04:29:32;;;;;;;8.65;1.40;;;27.80;90.80;;;;;;5083803;28;20049;-53
2021/10/18 04:31:59;;;;;;;3.35;1.23;;;27.80;90.80;;;;;;5083690;28;20062;-55
2021/10/18 04:34:26;;;;;;;3.30;1.20;;;27.80;90.80;;;;;;5082803;28;20044;-52
2021/10/18 04:36:54;;;;;;;6.85;1.23;;;27.80;90.80;;;;;;5082582;28;20058;-53
2021/10/18 04:39:21;;;;;;;4.82;1.20;;;27.80;90.80;;;;;;5082600;28;20024;-53
2021/10/18 04:41:47;;;;;;;4.18;1.50;;;27.80;90.90;;;;;;5083912;28;20017;-51
2021/10/18 04:44:15;;;;;;;3.10;1.23;;;27.70;90.90;;;;;;5084051;28;20035;-51
2021/10/18 04:46:41;;;;;;;5.65;1.50;;;27.70;90.90;;;;;;5083560;28;20186;-52
2021/10/18 04:49:08;;;;;;;6.35;1.35;;;27.70;90.90;;;;;;5083949;28;20117;-51
2021/10/18 04:51:35;;;;;;;5.30;1.27;;;27.80;90.90;;;;;;5083648;28;20013;-50
2021/10/18 04:54:02;;;;;;;4.57;1.45;;;27.70;91.00;;;;;;5083687;28;20051;-53
2021/10/18 04:56:28;;;;;;;6.10;1.30;;;27.70;91.00;;;;;;5083664;28;20070;-52
2021/10/18 04:58:55;;;;;;;2.90;1.20;;;27.70;91.00;;;;;;5082386;28;20074;-51
2021/10/18 05:01:22;;;;;;;4.22;1.35;;;27.70;91.00;;;;;;5083403;28;20301;-50
2021/10/18 05:03:48;;;;;;;4.07;1.25;;;27.70;91.00;;;;;;5083818;28;20024;-50
2021/10/18 05:06:15;;;;;;;3.58;1.38;;;27.70;91.00;;;;;;5083447;28;20059;-53
2021/10/18 05:08:42;;;;;;;4.82;1.20;;;27.70;90.90;;;;;;5083626;28;20055;-52
2021/10/18 05:11:08;;;;;;;4.50;1.20;;;27.70;91.00;;;;;;5083473;28;20267;-54
2021/10/18 05:13:35;;;;;;;2.70;1.35;;;27.70;91.00;;;;;;5083560;28;20058;-52
2021/10/18 05:16:01;;;;;;;4.07;1.20;;;27.70;91.00;;;;;;5083347;28;20023;-54
2021/10/18 05:18:28;;;;;;;8.43;1.70;;;27.70;91.00;;;;;;5083540;28;20025;-49
2021/10/18 05:20:55;;;;;;;3.70;1.27;;;27.70;91.00;;;;;;5083384;28;20080;-51
2021/10/18 05:23:21;;;;;;;4.70;1.27;;;27.70;91.10;;;;;;5083303;28;20028;-49
2021/10/18 05:25:48;;;;;;;6.70;1.38;;;27.70;91.10;;;;;;5083325;28;20017;-51
2021/10/18 05:28:14;;;;;;;7.68;1.27;;;27.70;91.10;;;;;;5083288;28;20052;-50
2021/10/18 05:30:41;;;;;;;7.30;1.27;;;27.70;91.00;;;;;;5083338;28;20024;-52
2021/10/18 05:33:08;;;;;;;3.88;1.33;;;27.70;91.10;;;;;;5083482;28;20039;-55
2021/10/18 05:35:36;;;;;;;4.15;1.05;;;27.60;91.30;;;;;;5083168;28;20031;-49
2021/10/18 05:38:03;;;;;;;5.43;1.23;;;27.60;91.00;;;;;;5083068;28;20020;-51
2021/10/18 05:40:30;;;;;;;11.90;2.90;;;27.60;90.90;;;;;;5083147;28;20025;-51
2021/10/18 05:42:56;;;;;;;8.38;3.50;;;27.60;90.90;;;;;;5086085;28;20024;-58
2021/10/18 05:45:23;;;;;;;8.90;4.30;;;27.60;90.80;;;;;;5086697;28;20371;-50
2021/10/18 05:47:55;;;;;;;9.88;3.67;;;27.60;90.90;;;;;;5086471;28;20028;-48
2021/10/18 05:50:23;;;;;;;6.30;3.55;;;27.60;90.80;;;;;;5086544;28;20028;-51
2021/10/18 05:52:50;;;;;;;7.30;3.50;;;27.60;90.80;;;;;;5086395;28;20028;-49
2021/10/18 05:55:17;;;;;;;8.25;2.70;;;27.60;90.80;;;;;;5086532;28;20074;-52
2021/10/18 05:57:51;;;;;;;8.38;3.05;;;27.60;90.70;;;;;;5086381;28;20024;-48
2021/10/18 06:00:18;;;;;;;7.32;2.38;;;27.60;90.70;;;;;;5086594;28;20032;-52
2021/10/18 06:02:45;;;;;;;6.22;1.85;;;27.50;91.00;;;;;;5086408;28;20084;-52
2021/10/18 06:05:12;;;;;;;5.00;2.10;;;27.50;90.70;;;;;;5086286;28;20032;-52
2021/10/18 06:07:38;;;;;;;8.02;1.80;;;27.60;90.70;;;;;;5086124;28;20028;-51
2021/10/18 06:10:07;;;;;;;5.90;1.70;;;27.60;90.60;;;;;;5086802;28;20024;-54
2021/10/18 06:12:34;;;;;;;7.15;1.75;;;27.50;90.70;;;;;;5086133;28;20092;-48
2021/10/18 06:15:00;;;;;;;6.68;1.67;;;27.50;90.70;;;;;;5086514;28;20036;-54
2021/10/18 06:17:27;;;;;;;7.03;1.63;;;27.50;90.70;;;;;;5085948;28;20020;-52
2021/10/18 06:19:54;;;;;;;5.30;1.67;;;27.50;90.70;;;;;;5086632;28;20031;-50
2021/10/18 06:22:20;;;;;;;4.25;1.50;;;27.50;90.70;;;;;;5085879;28;20017;-50
2021/10/18 06:24:48;;;;;;;6.72;1.23;;;27.50;90.70;;;;;;5086406;28;20035;-53
2021/10/18 06:27:16;;;;;;;7.43;1.73;;;27.50;90.90;;;;;;5086211;28;20298;-53
2021/10/18 06:29:43;;;;;;;6.40;1.48;;;27.50;90.70;;;;;;5086091;28;20036;-51
2021/10/18 06:32:09;;;;;;;6.95;1.45;;;27.50;90.70;;;;;;5085825;28;20018;-54
2021/10/18 06:34:36;;;;;;;8.50;1.52;;;27.50;90.70;;;;;;5086136;28;20028;-54
2021/10/18 06:37:02;;;;;;;5.30;1.55;;;27.40;90.80;;;;;;5085511;28;20020;-53
2021/10/18 06:39:29;;;;;;;9.13;1.58;;;27.40;90.80;;;;;;5086048;28;20091;-51
2021/10/18 06:41:56;;;;;;;7.70;1.90;;;27.40;90.80;;;;;;5085649;28;20013;-53
2021/10/18 06:44:22;;;;;;;13.77;2.70;;;27.40;90.80;;;;;;5085788;28;20028;-54
2021/10/18 06:46:49;;;;;;;7.18;2.70;;;27.40;90.70;;;;;;5085427;28;20019;-52
2021/10/18 06:49:16;;;;;;;10.77;2.80;;;27.40;90.80;;;;;;5085772;28;20033;-56
2021/10/18 06:51:48;;;;;;;9.95;3.20;;;27.40;90.90;;;;;;5085326;28;20354;-53
2021/10/18 06:54:15;;;;;;;8.07;3.92;;;27.40;90.90;;;;;;5085588;28;20308;-54
2021/10/18 06:56:44;;;;;;;11.75;3.97;;;27.30;90.90;;;;;;5085354;28;20215;-52
2021/10/18 06:59:13;;;;;;;10.48;4.32;;;27.30;90.90;;;;;;5085289;28;20343;-48
2021/10/18 07:01:39;;;;;;;12.82;4.57;;;27.30;90.90;;;;;;5085253;28;20012;-49
2021/10/18 07:04:07;;;;;;;12.98;4.60;;;27.30;91.00;;;;;;5085426;28;20024;-52
2021/10/18 07:06:34;;;;;;;12.10;6.40;;;27.30;91.10;;;;;;5084995;28;20035;-52
2021/10/18 07:09:02;;;;;;;16.17;9.70;;;27.30;91.10;;;;;;5085373;28;20305;-50
2021/10/18 07:11:29;;;;;;;22.33;12.25;;;27.30;91.10;;;;;;5084965;28;20021;-51
2021/10/18 07:13:55;;;;;;;17.45;10.52;;;27.30;91.20;;;;;;5084971;28;20035;-51
2021/10/18 07:16:23;;;;;;;12.73;6.78;;;27.20;91.10;;;;;;5084859;28;20035;-49
2021/10/18 07:18:49;;;;;;;13.90;6.35;;;27.20;91.10;;;;;;5084838;28;20309;-50
2021/10/18 07:21:16;;;;;;;14.30;5.05;;;27.20;91.00;;;;;;5084771;28;20031;-52
2021/10/18 07:23:45;;;;;;;12.57;4.90;;;27.20;91.00;;;;;;5084928;28;20020;-51
2021/10/18 07:26:12;;;;;;;7.40;4.30;;;27.20;90.90;;;;;;5084681;28;20020;-49
2021/10/18 07:28:39;;;;;;;11.00;4.38;;;27.20;90.80;;;;;;5084508;28;20115;-50
2021/10/18 07:31:05;;;;;;;10.82;4.60;;;27.20;90.70;;;;;;5084539;28;20031;-51
2021/10/18 07:33:32;;;;;;;11.02;4.38;;;27.20;90.70;;;;;;5084679;28;20081;-51
2021/10/18 07:36:08;;;;;;;10.68;3.58;;;27.20;90.60;;;;;;5084669;28;20027;-53
2021/10/18 07:38:38;;;;;;;10.43;4.65;;;27.20;90.60;;;;;;5084460;28;20036;-53
2021/10/18 07:41:08;;;;;;;11.93;4.82;;;27.10;90.40;;;;;;5084406;28;20017;-50
2021/10/18 07:43:35;;;;;;;11.77;3.72;;;27.10;90.40;;;;;;5084425;28;20021;-51
2021/10/18 07:46:02;;;;;;;7.65;2.97;;;27.20;90.40;;;;;;5084383;28;20038;-54
2021/10/18 07:48:28;;;;;;;7.30;2.50;;;27.10;90.40;;;;;;5084463;28;20066;-53
2021/10/18 07:50:55;;;;;;;7.95;2.40;;;27.10;90.50;;;;;;5084109;28;20251;-53
2021/10/18 07:53:22;;;;;;;7.35;3.10;;;27.10;90.60;;;;;;5084350;28;20028;-56
2021/10/18 07:55:49;;;;;;;5.75;2.78;;;27.10;90.60;;;;;;5084511;28;20265;-54
2021/10/18 07:58:15;;;;;;;7.18;2.80;;;27.10;90.60;;;;;;5084060;28;20047;-49
2021/10/18 08:00:42;;;;;;;9.10;3.40;;;27.10;90.60;;;;;;5084457;28;20016;-48
2021/10/18 08:03:08;;;;;;;6.95;3.13;;;27.10;90.70;;;;;;5084172;28;20040;-50
2021/10/18 08:05:35;;;;;;;5.85;2.40;;;27.10;90.70;;;;;;5083516;28;20013;-51
2021/10/18 08:08:03;;;;;;;6.63;2.38;;;27.10;90.70;;;;;;5083958;28;20081;-52
2021/10/18 08:10:30;;;;;;;5.38;2.33;;;27.10;90.70;;;;;;5084253;28;20032;-53
2021/10/18 08:12:59;;;;;;;4.93;2.55;;;27.10;90.80;;;;;;5083801;28;20021;-52
2021/10/18 08:15:28;;;;;;;7.63;2.90;;;27.00;90.80;;;;;;5084126;28;20375;-56
2021/10/18 08:17:55;;;;;;;5.82;2.40;;;27.00;90.90;;;;;;5083820;28;20052;-53
2021/10/18 08:20:22;;;;;;;9.10;2.38;;;27.00;91.00;;;;;;5083870;28;20027;-48
2021/10/18 08:22:49;;;;;;;9.07;2.25;;;27.00;91.00;;;;;;5083924;28;20308;-50
2021/10/18 08:25:16;;;;;;;8.63;1.98;;;27.00;91.00;;;;;;5083936;28;20083;-54
2021/10/18 08:27:43;;;;;;;8.48;2.03;;;27.00;91.00;;;;;;5083583;28;20070;-49
2021/10/18 08:30:10;;;;;;;9.70;2.10;;;27.00;91.00;;;;;;5084298;28;20032;-51
2021/10/18 08:32:39;;;;;;;7.32;2.20;;;26.90;91.00;;;;;;5083904;28;20042;-54
2021/10/18 08:35:08;;;;;;;8.23;2.70;;;26.90;91.00;;;;;;5084121;28;20063;-51
2021/10/18 08:40:22;;;;;;;7.10;2.00;;;26.90;91.10;;;;;;5083643;28;20069;-49
2021/10/18 08:43:19;;;;;;;11.35;2.60;;;26.90;91.10;;;;;;5084018;28;20027;-51
2021/10/18 08:45:47;;;;;;;7.50;2.97;;;26.90;91.10;;;;;;5083696;28;20036;-51
2021/10/18 08:48:14;;;;;;;6.72;2.67;;;26.90;91.10;;;;;;5083625;28;20038;-51
2021/10/18 08:50:40;;;;;;;6.72;2.60;;;26.90;91.10;;;;;;5083626;28;20347;-52
2021/10/18 08:53:07;;;;;;;9.35;2.55;;;26.90;91.10;;;;;;5083620;28;20035;-50
2021/10/18 08:55:38;;;;;;;4.97;2.25;;;26.80;91.10;;;;;;5083713;28;20228;-53
2021/10/18 08:58:05;;;;;;;7.53;2.33;;;26.80;91.10;;;;;;5083580;28;20343;-53
2021/10/18 09:00:41;;;;;;;5.13;1.85;;;26.80;91.10;;;;;;5083671;28;20017;-56
2021/10/18 09:03:22;;;;;;;7.03;2.17;;;26.80;91.10;;;;;;5083751;28;20328;-55
2021/10/18 09:05:50;;;;;;;5.40;2.00;;;26.80;91.10;;;;;;5083467;28;20027;-52
2021/10/18 09:08:40;;;;;;;3.95;1.55;;;26.80;91.00;;;;;;5083520;28;20178;-53
2021/10/18 09:11:18;;;;;;;6.30;3.17;;;26.80;91.10;;;;;;5083387;28;20021;-55
2021/10/18 09:13:56;;;;;;;3.58;2.58;;;26.80;91.10;;;;;;5083522;28;20098;-53
2021/10/18 09:16:29;;;;;;;5.30;1.95;;;26.80;91.10;;;;;;5084371;28;20021;-52
2021/10/18 09:19:10;;;;;;;4.20;1.90;;;26.70;91.00;;;;;;5086934;28;20021;-52
2021/10/18 09:21:43;;;;;;;8.35;1.80;;;26.70;91.00;;;;;;5087093;28;20023;-52
2021/10/18 09:24:16;;;;;;;7.25;1.73;;;26.70;91.00;;;;;;5087390;28;20024;-53
2021/10/18 09:26:44;;;;;;;6.40;1.30;;;26.70;91.00;;;;;;5087171;28;20017;-57
2021/10/18 09:29:16;;;;;;;7.88;1.65;;;26.70;91.10;;;;;;5087074;28;20076;-56
2021/10/18 09:32:00;;;;;;;7.70;1.38;;;26.70;91.10;;;;;;5086905;28;20025;-55
2021/10/18 09:34:34;;;;;;;8.43;2.00;;;26.70;91.10;;;;;;5087155;28;20300;-54
2021/10/18 09:37:09;;;;;;;4.50;1.80;;;26.60;91.00;;;;;;5086718;28;20032;-54
2021/10/18 09:39:46;;;;;;;5.55;1.70;;;26.60;91.00;;;;;;5087300;28;20066;-56
2021/10/18 09:42:15;;;;;;;6.57;2.10;;;26.60;90.90;;;;;;5086647;28;20012;-54
2021/10/18 10:53:31;;;;;;;5.32;1.60;;;26.40;90.80;;;;;;5085382;28;20109;-50
2021/10/18 10:56:16;;;;;;;8.88;1.70;;;26.40;90.90;;;;;;5085303;28;20022;-51
2021/10/18 10:58:53;;;;;;;8.48;2.10;;;26.50;90.90;;;;;;5085547;28;20024;-52
2021/10/18 11:01:43;;;;;;;5.88;2.10;;;26.50;90.90;;;;;;5085144;28;20021;-51
2021/10/18 11:04:31;;;;;;;8.88;1.92;;;26.40;90.90;;;;;;5085442;28;20025;-51
2021/10/18 11:07:13;;;;;;;7.95;1.90;;;26.40;91.00;;;;;;5085245;28;20059;-54
2021/10/18 11:09:42;;;;;;;8.38;2.10;;;26.40;91.00;;;;;;5083933;28;20048;-49
2021/10/18 11:12:32;;;;;;;10.75;2.72;;;26.40;91.10;;;;;;5085000;28;20064;-49
2021/10/18 11:15:04;;;;;;;13.43;2.75;;;26.40;91.00;;;;;;5074718;28;20044;-48
2021/10/18 11:17:33;;;;;;;11.57;2.40;;;26.40;90.90;;;;;;5084763;28;20078;-49
2021/10/18 11:20:06;;;;;;;10.10;2.22;;;26.40;91.00;;;;;;5085204;28;20032;-50
2021/10/18 11:22:34;;;;;;;;;;;26.40;90.90;;;;;;5085108;28;20341;-48
2021/10/18 11:25:02;;;;;;;7.85;2.05;;;26.50;90.90;;;;;;5085104;28;19909;-48
2021/10/18 11:27:35;;;;;;;8.90;2.17;;;26.50;91.00;;;;;;5084598;28;20084;-52
2021/10/18 11:30:12;;;;;;;11.35;2.15;;;26.50;90.90;;;;;;5085122;28;20320;-55
2021/10/18 11:32:39;;;;;;;6.03;2.20;;;26.60;90.90;;;;;;5084645;28;20040;-56
2021/10/18 11:35:14;;;;;;;6.20;2.30;;;26.70;90.70;;;;;;5084897;28;20029;-54
2021/10/18 11:37:54;;;;;;;9.20;2.60;;;26.90;90.80;;;;;;5084734;28;20309;-50
2021/10/18 11:40:35;;;;;;;9.05;2.92;;;26.90;90.40;;;;;;5083604;28;20028;-52
2021/10/18 11:43:05;;;;;;;11.88;2.78;;;26.90;90.30;;;;;;5084486;28;20247;-50
2021/10/18 11:45:45;;;;;;;11.75;2.97;;;26.90;90.20;;;;;;5084189;28;20062;-56
2021/10/18 11:48:18;;;;;;;10.05;2.47;;;26.90;90.20;;;;;;5084400;28;20039;-57
2021/10/18 11:50:47;;;;;;;6.63;2.30;;;26.90;90.40;;;;;;5084236;28;20335;-49
2021/10/18 11:53:24;;;;;;;7.63;2.28;;;26.90;90.10;;;;;;5084307;28;20028;-53
2021/10/18 11:55:55;;;;;;;10.63;1.83;;;26.90;90.00;;;;;;5084235;28;20320;-53
2021/10/18 11:58:27;;;;;;;8.95;1.50;;;26.90;90.00;;;;;;5084105;28;20028;-51
2021/10/18 12:01:04;;;;;;;10.23;1.58;;;26.90;89.80;;;;;;5084204;28;20016;-49
2021/10/18 12:03:35;;;;;;;4.85;1.42;;;27.00;89.90;;;;;;5084094;28;20024;-53
2021/10/18 12:06:04;;;;;;;7.55;1.60;;;27.00;89.90;;;;;;5084003;28;20013;-50
2021/10/18 12:08:35;;;;;;;6.07;1.77;;;27.00;90.00;;;;;;5084611;28;20099;-53
2021/10/18 12:11:05;;;;;;;9.90;2.00;;;27.10;90.00;;;;;;5084043;28;20017;-55
2021/10/18 12:13:42;;;;;;;17.25;2.28;;;27.10;90.00;;;;;;5084068;28;20028;-55
2021/10/18 12:16:19;;;;;;;10.82;2.25;;;27.20;90.10;;;;;;5083831;28;20213;-52
2021/10/18 12:19:01;;;;;;;7.85;2.60;;;27.20;90.00;;;;;;5076423;28;20028;-51
2021/10/18 12:21:36;;;;;;;8.00;2.20;;;27.20;89.90;;;;;;5073907;28;20309;-52
2021/10/18 12:24:11;;;;;;;9.20;2.15;;;27.30;89.60;;;;;;5072775;28;20032;-54
2021/10/18 12:26:47;;;;;;;5.55;2.00;;;27.30;89.30;;;;;;5072323;28;20009;-50
2021/10/18 12:29:18;;;;;;;3.70;1.67;;;27.30;89.00;;;;;;5072648;28;20321;-56
2021/10/18 12:31:50;;;;;;;9.88;2.20;;;27.40;88.70;;;;;;5072885;28;20088;-51
2021/10/18 12:34:29;;;;;;;4.70;1.90;;;27.40;88.50;;;;;;5074742;28;20041;-55
2021/10/18 12:37:06;;;;;;;8.75;2.20;;;27.40;88.40;;;;;;5063773;28;20017;-56
2021/10/18 12:39:55;;;;;;;9.95;2.15;;;27.40;88.40;;;;;;5072985;28;20033;-56
2021/10/18 12:42:21;;;;;;;5.97;1.67;;;27.50;88.40;;;;;;5073512;28;20017;-54
2021/10/18 12:44:50;;;;;;;9.02;2.00;;;27.50;88.30;;;;;;5072566;28;20292;-53
2021/10/18 12:47:24;;;;;;;5.55;2.00;;;27.50;88.50;;;;;;5073455;28;20040;-55
2021/10/18 12:50:08;;;;;;;9.93;2.05;;;27.50;88.60;;;;;;5067479;28;20021;-52
2021/10/18 12:52:37;;;;;;;14.25;2.90;;;27.60;88.70;;;;;;5087725;28;20024;-50
2021/10/18 12:55:31;;;;;;;23.95;4.05;;;27.60;88.90;;;;;;5087986;28;20302;-51
2021/10/18 12:58:00;;;;;;;17.13;3.25;;;27.60;89.00;;;;;;5084674;28;20375;-54
2021/10/18 13:00:33;;;;;;;17.92;2.95;;;27.60;88.90;;;;;;5086328;28;20036;-53
2021/10/18 13:03:21;;;;;;;9.73;2.83;;;27.60;88.90;;;;;;5087380;28;20044;-57
2021/10/18 13:05:55;;;;;;;11.05;2.80;;;27.70;89.10;;;;;;5087498;28;20223;-55
2021/10/18 13:08:25;;;;;;;15.68;2.80;;;27.70;89.20;;;;;;5069493;28;20048;-50
2021/10/18 13:10:53;;;;;;;11.23;2.60;;;27.70;89.80;;;;;;5067268;28;20084;-59
2021/10/18 13:13:24;;;;;;;8.63;2.30;;;27.70;89.50;;;;;;5082230;28;20059;-55
2021/10/18 13:15:52;;;;;;;11.48;1.90;;;27.70;90.00;;;;;;5087330;28;20040;-56
2021/10/18 13:18:20;;;;;;;7.38;1.60;;;27.80;89.90;;;;;;5084275;28;20033;-53
2021/10/18 13:20:46;;;;;;;9.57;1.88;;;27.80;89.80;;;;;;5087251;28;20043;-52
2021/10/18 13:23:15;;;;;;;7.28;1.67;;;27.80;89.10;;;;;;5087234;28;20061;-55
2021/10/18 13:25:43;;;;;;;7.82;1.65;;;27.90;89.30;;;;;;5076598;28;20024;-56
2021/10/18 13:28:11;;;;;;;5.20;1.42;;;27.90;89.90;;;;;;5077673;28;20044;-52
2021/10/18 13:30:48;;;;;;;7.32;1.70;;;27.90;88.70;;;;;;5077239;28;20016;-55
2021/10/18 13:33:15;;;;;;;6.10;1.40;;;27.90;89.10;;;;;;5076678;28;20277;-55
2021/10/18 13:35:43;;;;;;;7.53;1.63;;;27.90;88.90;;;;;;5076915;28;20028;-56
2021/10/18 13:38:11;;;;;;;8.02;1.83;;;28.00;88.60;;;;;;5075194;28;20013;-55
2021/10/18 13:40:39;;;;;;;7.82;1.60;;;28.00;87.40;;;;;;5066711;28;20028;-57
2021/10/18 13:43:06;;;;;;;7.15;1.40;;;28.00;87.90;;;;;;5066516;28;20020;-54
2021/10/18 13:45:33;;;;;;;8.90;1.50;;;28.10;88.10;;;;;;5066378;28;20017;-55
2021/10/18 13:48:00;;;;;;;6.70;1.60;;;28.10;88.00;;;;;;5066115;28;20017;-53
2021/10/18 13:50:27;;;;;;;3.47;1.50;;;28.00;87.70;;;;;;5066164;28;20021;-51
2021/10/18 13:52:54;;;;;;;4.28;1.45;;;28.10;88.00;;;;;;5066337;28;20278;-51
2021/10/18 13:55:23;;;;;;;5.72;1.65;;;28.00;88.00;;;;;;5065002;28;20244;-54
2021/10/18 13:57:50;;;;;;;4.15;1.23;;;28.10;87.70;;;;;;5062084;28;20249;-57
2021/10/18 14:00:17;;;;;;;5.10;1.40;;;28.10;87.80;;;;;;5063386;28;20020;-60
2021/10/18 14:02:46;;;;;;;5.20;1.40;;;28.10;87.50;;;;;;5062775;28;20309;-55
2021/10/18 14:05:13;;;;;;;6.03;1.58;;;28.10;87.60;;;;;;5063903;28;20059;-58
2021/10/18 14:07:40;;;;;;;4.80;1.60;;;28.10;87.60;;;;;;5063575;28;20088;-55